LGRP

Details ICAO LGRP (RHO)
Name DIAGORAS
Region Greece
Timezone Europe/Athens (UTC+3.0)
Plans Departing 319
Arriving 511
Stats Elevation 17 ft / 5 m (AMSL)
Location 36.405420° 28.086193°
Runways 1
Magnetic Variation 4.830° E
Sunrise 2018-06-25 02:52:16 UTC / 2018-06-25 05:52:16 Local
Sunset 2018-06-25 17:30:38 UTC / 2018-06-25 20:30:38 Local
Advertisement - Login to hide

Runways

ID Width Length Bearing (true) Bearing (mag) Surface Threshold Offset Overrun Length
07 148 ft / 45 m 10,830 ft / 3,301 m 69.97° 65.14° Asphalt 0 ft / 0 m 0 ft / 0 m
25 148 ft / 45 m 10,830 ft / 3,301 m 249.99° 245.16° Asphalt 0 ft / 0 m 0 ft / 0 m

Approach Navaids

Runway Type Ident Frequency Range Bearing (true) Bearing (mag) Slope Elevation
25 Localiser IRDS 110.30 MHz 18 nm / 33 km 250.45° 245.62° - 17 ft / 5 m (AMSL)
25 Glidescope IRDS 110.30 MHz 10 nm / 19 km 249.98° 245.15° 3.00° 17 ft / 5 m (AMSL)

Map

Weather


0- 5 10 15 20 25 30 35+ Temperature / ° C

Clouds and Precipitation
Forecast for 2018-06-25 12:00 UTC. Updated 2 hours ago

Ground ~20,000 ft ~40,000 ft Winds

METAR

LGRP 251120Z 25012KT 9999 FEW018 27/22 Q1009 NOSIG

TAF

TAF LGRP 250500Z 2506/2606 25015KT 9999 FEW020

Frequencies

Recorded 126.35 MHz ATIS
Tower 118.20 MHz TWR
Approach 118.25 MHz RODOS APP
Approach 122.10 MHz RODOS APP
Ground 121.70 MHz GND
Tower 122.10 MHz TWR
Approach 120.60 MHz RODOS APP
Warning: Do not use this data for real-world aviation or navigation. No guarantee of current accuracy is given.